< < Back
Terminal Aerodrome Forecast


Current Version              Previous Versions:   1  2  3  4  5  6  7  8  9  

Terminal Aerodrome Forecast

745
FTUS44 KOHX 271100
TAFBNA
TAF
KBNA 271121Z 2712/2812 33004KT P6SM OVC070
     FM280200 01004KT P6SM SKC=

Latest METAR

264
SAUS70 KWBC 272100 RRF
MTRBNA
METAR KBNA 272053Z 32008KT 10SM BKN023 OVC027 04/M01 A3011 RMK AO2
SLP199 T00391011 53009


USA.gov is the U.S. government's official web portal to all federal, state and local government web resources and services.